Time;durP1;ratioP1;P1;durP2;ratioP2;P2;SDS_P1;SDS_P2;PMS_P1;PMS_P2;Temp;Humidity;BMP_temperature;BMP_pressure;BME280_temperature;BME280_humidity;BME280_pressure;Samples;Min_cycle;Max_cycle;Signal;HPM_P1;HPM_P2
2022/02/23 01:41:19;584568.00;1.95;1007.58;95859.00;0.32;166.42;;;;;11.20;1.00;;;;;;2504634;40;3763;31
2022/02/23 02:08:43;662827.00;2.21;1142.83;18183.00;0.06;32.12;;;;;11.10;1.00;;;;;;2266189;61;915;-84
2022/02/23 03:10:38;516297.00;1.72;889.89;0.00;0.00;0.62;;;;;6.70;5.00;;;;;;2266386;61;978;-87
2022/02/23 06:17:52;129200.00;0.43;223.95;0.00;0.00;0.62;;;;;11.90;1.00;;;;;;2266484;61;942;-85
2022/02/23 06:25:42;928530.00;3.10;1606.28;10016.00;0.03;17.98;;;;;12.10;1.00;;;;;;2423070;40;3246;31
2022/02/23 07:04:15;120010.00;0.40;208.10;0.00;0.00;0.62;;;;;12.80;1.00;;;;;;2501864;55;3703;31
2022/02/23 12:49:58;1011068.00;3.37;1752.08;0.00;0.00;0.62;;;;;15.50;1.00;;;;;;2497479;41;2047;31
2022/02/23 15:02:02;428810.00;1.43;739.34;0.00;0.00;0.62;;;;;15.10;1.00;;;;;;848759;40;2515;-87
2022/02/23 15:04:31;609974.00;2.03;1051.44;33462.00;0.11;58.58;;;;;15.00;1.00;;;;;;2272543;61;1501;-87
2022/02/23 15:07:01;1129527.00;3.77;1963.31;79779.00;0.27;138.66;;;;;15.30;1.00;;;;;;2272541;61;1066;-87
2022/02/23 15:09:36;1007380.00;3.36;1745.55;53196.00;0.18;92.71;;;;;15.50;1.00;;;;;;2272508;61;1457;-87
2022/02/23 15:12:06;508217.00;1.69;875.97;35982.00;0.12;62.94;;;;;15.10;1.00;;;;;;2272565;61;1376;-87
2022/02/23 15:14:33;742726.00;2.48;1281.41;40717.00;0.14;71.13;;;;;15.20;1.00;;;;;;2272549;61;1993;-87
2022/02/23 15:17:01;1268347.00;4.23;2214.29;139286.00;0.46;241.34;;;;;15.10;1.00;;;;;;2272578;61;1060;-87
2022/02/23 15:19:30;1101162.00;3.67;1912.50;59039.00;0.20;102.82;;;;;15.00;1.00;;;;;;2272579;61;947;-87
2022/02/23 15:21:57;1298979.00;4.33;2270.24;112643.00;0.38;195.39;;;;;14.80;1.00;;;;;;2272386;61;1441;-88
2022/02/23 15:24:28;1348393.00;4.49;2360.95;183647.00;0.61;317.77;;;;;14.80;1.00;;;;;;2272347;61;1015;-87
2022/02/23 15:26:56;1144896.00;3.82;1990.90;34443.00;0.11;60.27;;;;;14.70;1.00;;;;;;2272590;61;1063;-87
2022/02/23 15:29:24;1527682.00;5.09;2695.32;172463.00;0.57;298.51;;;;;15.10;1.00;;;;;;2272495;61;967;-87
2022/02/23 15:31:52;1218371.00;4.06;2123.47;99402.00;0.33;172.54;;;;;15.20;1.00;;;;;;2272476;61;1396;-88
2022/02/23 15:34:20;1325492.00;4.42;2318.83;88159.00;0.29;153.13;;;;;14.70;1.00;;;;;;2272392;61;2006;-86
2022/02/23 15:36:49;832256.00;2.77;1437.44;26214.00;0.09;46.03;;;;;14.50;1.00;;;;;;2272457;61;999;-87
2022/02/23 15:39:17;748499.00;2.49;1291.45;14931.00;0.05;26.49;;;;;14.60;1.00;;;;;;2272491;61;1028;-87
2022/02/23 15:41:44;1227610.00;4.09;2140.22;128089.00;0.43;222.03;;;;;14.10;1.00;;;;;;2272400;61;1583;-87
2022/02/23 15:44:14;1004117.00;3.35;1739.76;32318.00;0.11;56.60;;;;;14.10;1.00;;;;;;2272387;61;1108;-87
2022/02/23 15:46:42;892016.00;2.97;1542.10;38272.00;0.13;66.90;;;;;14.10;1.00;;;;;;2272459;61;986;-87
2022/02/23 15:49:10;820394.00;2.73;1416.71;24591.00;0.08;43.22;;;;;14.00;1.00;;;;;;2272422;61;964;-88
2022/02/23 15:51:37;1219182.00;4.06;2124.94;23104.00;0.08;40.64;;;;;14.10;1.00;;;;;;2272283;61;1472;-87
2022/02/23 15:54:08;1030536.00;3.44;1786.63;34810.00;0.12;60.91;;;;;14.30;1.00;;;;;;2272438;61;1909;-87
2022/02/23 15:56:36;1320024.00;4.40;2308.80;60620.00;0.20;105.55;;;;;14.20;1.00;;;;;;2272382;61;1506;-88
2022/02/23 15:59:03;1255404.00;4.18;2190.72;105582.00;0.35;183.21;;;;;14.00;1.00;;;;;;2272468;61;956;-87
2022/02/23 16:01:32;1058466.00;3.53;1836.30;48397.00;0.16;84.41;;;;;14.20;1.00;;;;;;2272278;61;1373;-87
2022/02/23 16:04:00;1356005.00;4.52;2374.97;189247.00;0.63;327.41;;;;;14.70;1.00;;;;;;2272344;61;1597;-88
2022/02/23 16:06:28;780809.00;2.60;1347.67;55556.00;0.19;96.79;;;;;14.90;1.00;;;;;;2272298;61;1435;-88
2022/02/23 16:09:02;956318.00;3.19;1655.26;61331.00;0.20;106.78;;;;;15.00;1.00;;;;;;2272441;61;1439;-88
2022/02/23 16:11:31;1269786.00;4.23;2216.92;35138.00;0.12;61.48;;;;;15.20;1.00;;;;;;2272368;61;1645;-88
2022/02/23 16:14:21;585010.00;1.95;1008.34;32221.00;0.11;56.43;;;;;15.10;1.00;;;;;;2272378;61;2154;-87
2022/02/23 16:16:49;318753.00;1.06;550.15;0.00;0.00;0.62;;;;;15.10;1.00;;;;;;2272327;61;1105;-88
2022/02/23 16:19:17;1259111.00;4.20;2197.47;126141.00;0.42;218.67;;;;;15.10;1.00;;;;;;2272302;61;1657;-87
2022/02/23 16:21:48;868620.00;2.90;1501.07;75981.00;0.25;132.09;;;;;15.20;1.00;;;;;;2272344;61;1390;-87
2022/02/23 16:24:16;1532594.00;5.11;2704.60;198559.00;0.66;343.44;;;;;15.20;1.00;;;;;;2272296;61;2087;-87
2022/02/23 16:26:55;1323924.00;4.41;2315.96;206199.00;0.69;356.59;;;;;15.50;1.00;;;;;;2272267;61;1485;-87
2022/02/23 16:29:23;877001.00;2.92;1515.76;30825.00;0.10;54.01;;;;;15.50;1.00;;;;;;2272223;61;1475;-87
2022/02/23 16:31:55;1455821.00;4.85;2560.26;96723.00;0.32;167.92;;;;;15.70;1.00;;;;;;2272201;61;2216;-87
2022/02/23 16:34:22;1603163.00;5.34;2838.79;158452.00;0.53;274.37;;;;;15.70;1.00;;;;;;2272031;61;1997;-88
2022/02/23 16:36:51;1224622.00;4.08;2134.80;123650.00;0.41;214.38;;;;;15.80;1.00;;;;;;2272266;61;901;-86
2022/02/23 16:39:28;1243772.00;4.15;2169.56;89490.00;0.30;155.43;;;;;15.80;1.00;;;;;;2272219;61;1548;-88
2022/02/23 16:41:57;836360.00;2.79;1444.61;38947.00;0.13;68.07;;;;;15.80;1.00;;;;;;2272190;61;1450;-88
2022/02/23 16:44:24;1258591.00;4.20;2196.52;62833.00;0.21;109.37;;;;;15.90;1.00;;;;;;2272140;61;1611;-88
2022/02/23 16:46:51;1021971.00;3.41;1771.42;77252.00;0.26;134.29;;;;;15.90;1.00;;;;;;2272301;61;1055;-88
2022/02/23 16:49:22;1284430.00;4.28;2243.64;96833.00;0.32;168.10;;;;;15.80;1.00;;;;;;2272224;61;1056;-89
2022/02/23 16:51:54;1105792.00;3.69;1920.78;126211.00;0.42;218.80;;;;;15.60;1.00;;;;;;2272142;61;1422;-88
2022/02/23 16:54:21;860368.00;2.87;1486.62;591.00;0.00;1.64;;;;;15.60;1.00;;;;;;2272273;61;1918;-89
2022/02/23 16:56:48;1089036.00;3.63;1890.83;76393.00;0.25;132.81;;;;;15.50;1.00;;;;;;2272307;61;1099;-88
2022/02/23 16:59:18;1358114.00;4.53;2378.86;163415.00;0.54;282.92;;;;;15.40;1.00;;;;;;2272310;61;968;-88
2022/02/23 17:01:45;1167985.00;3.89;2032.44;41269.00;0.14;72.08;;;;;15.30;1.00;;;;;;2272131;61;1368;-89
2022/02/23 17:04:17;1558190.00;5.19;2753.10;162791.00;0.54;281.85;;;;;15.10;1.00;;;;;;2272213;61;1731;-89
2022/02/23 17:06:45;988483.00;3.29;1712.08;149646.00;0.50;259.20;;;;;15.10;1.00;;;;;;2272231;61;1565;-88
2022/02/23 17:09:12;1131608.00;3.77;1967.04;162545.00;0.54;281.42;;;;;15.10;1.00;;;;;;2272217;61;1449;-89
2022/02/23 17:11:39;627101.00;2.09;1081.04;90309.00;0.30;156.84;;;;;15.00;1.00;;;;;;2272245;61;1341;-88
2022/02/23 17:14:06;797694.00;2.66;1377.10;87187.00;0.29;151.45;;;;;14.70;1.00;;;;;;2272233;61;1915;-88
2022/02/23 17:16:34;632933.00;2.11;1091.12;80593.00;0.27;140.06;;;;;14.60;1.00;;;;;;2272197;61;2128;-88
2022/02/23 17:19:01;896646.00;2.99;1550.23;71516.00;0.24;124.38;;;;;14.50;1.00;;;;;;2272198;61;1079;-89
2022/02/23 17:21:28;1050727.00;3.50;1822.53;114189.00;0.38;198.06;;;;;14.60;1.00;;;;;;2272184;61;1356;-88
2022/02/23 17:23:55;597185.00;1.99;1029.36;53101.00;0.18;92.55;;;;;14.70;1.00;;;;;;2272272;61;1131;-88
2022/02/23 17:26:24;599134.00;2.00;1032.72;80768.00;0.27;140.36;;;;;14.80;1.00;;;;;;2272195;61;1317;-88
2022/02/23 17:28:51;984633.00;3.28;1705.27;89560.00;0.30;155.55;;;;;14.70;1.00;;;;;;2272091;61;1503;-88
2022/02/23 17:31:18;1070604.00;3.57;1857.93;129865.00;0.43;225.10;;;;;14.60;1.00;;;;;;2272147;61;1080;-89
2022/02/23 17:33:48;805041.00;2.68;1389.92;127198.00;0.42;220.50;;;;;14.40;1.00;;;;;;2272065;61;1668;-88
2022/02/23 17:36:19;121560656.00;405.20;72769416.00;118841.00;0.40;206.08;;;;;14.40;1.00;;;;;;2272012;61;1934;-89
2022/02/23 17:38:46;1547046.00;5.16;2731.96;224152.00;0.75;387.49;;;;;14.60;1.00;;;;;;2272085;61;1572;-88
2022/02/23 17:41:13;1335749.00;4.45;2337.68;261335.00;0.87;451.44;;;;;14.60;1.00;;;;;;2272182;61;1115;-88
2022/02/23 17:43:42;843117.00;2.81;1456.43;140550.00;0.47;243.52;;;;;14.50;1.00;;;;;;2272117;61;1173;-88
2022/02/23 17:46:10;1146159.00;3.82;1993.17;167774.00;0.56;290.43;;;;;14.60;1.00;;;;;;2272189;61;1660;-89
2022/02/23 17:48:39;544335.00;1.81;938.19;86383.00;0.29;150.06;;;;;14.60;1.00;;;;;;2272862;61;1079;-89
2022/02/23 17:51:08;634931.00;2.12;1094.57;63904.00;0.21;111.23;;;;;14.70;1.00;;;;;;2272788;61;2057;-89
2022/02/23 17:56:08;1041215.00;3.47;1805.61;81821.00;0.27;142.18;;;;;14.00;1.00;;;;;;2277401;55;3705;-89
2022/02/23 17:58:38;589003.00;1.96;1015.24;72091.00;0.24;125.37;;;;;13.80;1.00;;;;;;2276621;61;1462;-89
2022/02/23 18:01:08;420983.00;1.40;725.88;0.00;0.00;0.62;;;;;13.50;1.00;;;;;;2276846;61;1473;-88
2022/02/23 18:03:36;542350.00;1.81;934.77;33984.00;0.11;59.48;;;;;13.60;1.00;;;;;;2272790;61;1539;-88
2022/02/23 18:06:14;348924.00;1.16;602.01;0.00;0.00;0.62;;;;;13.80;1.00;;;;;;2272802;61;1059;-87
2022/02/23 18:08:41;605002.00;2.02;1042.86;63437.00;0.21;110.42;;;;;13.90;1.00;;;;;;2272828;61;1621;-87
2022/02/23 18:11:12;381447.00;1.27;657.91;0.00;0.00;0.62;;;;;14.10;1.00;;;;;;2272648;61;2226;-89
2022/02/23 18:13:39;644760.00;2.15;1111.57;25493.00;0.08;44.78;;;;;14.20;1.00;;;;;;2272686;61;1398;-89
2022/02/23 18:16:11;415776.00;1.39;716.93;0.00;0.00;0.62;;;;;14.10;1.00;;;;;;2272774;61;2170;-89
2022/02/23 18:18:41;406913.00;1.36;701.69;0.00;0.00;0.62;;;;;13.80;1.00;;;;;;2272782;61;1620;-89
2022/02/23 18:21:18;230763.00;0.77;398.86;0.00;0.00;0.62;;;;;14.10;1.00;;;;;;2272700;61;1655;-89
2022/02/23 18:23:53;525076.00;1.75;905.01;6869.00;0.02;12.52;;;;;14.30;1.00;;;;;;2272704;61;1485;-88
2022/02/23 18:26:21;428869.00;1.43;739.44;0.00;0.00;0.62;;;;;14.40;1.00;;;;;;2271259;61;1491;-88
2022/02/23 18:28:55;441165.00;1.47;760.59;0.00;0.00;0.62;;;;;14.20;1.00;;;;;;2272625;61;1074;-91
2022/02/23 18:31:27;461400.00;1.54;795.39;0.00;0.00;0.62;;;;;13.90;1.00;;;;;;2272515;61;1337;-89
2022/02/23 18:33:56;452601.00;1.51;780.26;50678.00;0.17;88.36;;;;;13.80;1.00;;;;;;2272733;61;1035;-92
2022/02/23 18:36:25;425197.00;1.42;733.13;0.00;0.00;0.62;;;;;14.00;1.00;;;;;;2272425;61;2013;-91
2022/02/23 18:38:53;626662.00;2.09;1080.28;0.00;0.00;0.62;;;;;14.10;1.00;;;;;;2272596;61;1122;-90
2022/02/23 18:41:23;448447.00;1.49;773.11;45830.00;0.15;79.97;;;;;13.90;1.00;;;;;;2272515;61;1007;-90
2022/02/23 18:46:39;397334.00;1.32;685.22;0.00;0.00;0.62;;;;;14.10;1.00;;;;;;2271813;61;1090;-90
2022/02/23 18:49:06;358745.00;1.20;618.89;0.00;0.00;0.62;;;;;13.90;1.00;;;;;;2272398;61;2387;-90
2022/02/23 18:51:44;650497.00;2.17;1121.50;33926.00;0.11;59.38;;;;;13.80;1.00;;;;;;2272432;61;1395;-90
2022/02/23 18:54:15;229794.00;0.77;397.19;0.00;0.00;0.62;;;;;13.80;1.00;;;;;;2272569;61;1543;-90
2022/02/23 18:56:44;613839.00;2.05;1058.12;0.00;0.00;0.62;;;;;13.90;1.00;;;;;;2272292;61;2027;-91
2022/02/23 18:59:13;439276.00;1.46;757.34;0.00;0.00;0.62;;;;;13.80;1.00;;;;;;2272486;61;1030;-90
2022/02/23 19:01:40;573714.00;1.91;988.85;0.00;0.00;0.62;;;;;13.50;1.00;;;;;;2272437;61;1400;-90
2022/02/23 19:04:08;610421.00;2.03;1052.22;21892.00;0.07;38.55;;;;;13.30;1.00;;;;;;2272435;61;1440;-89
2022/02/23 19:06:36;482427.00;1.61;831.57;0.00;0.00;0.62;;;;;12.80;1.00;;;;;;2272541;61;1083;-90
2022/02/23 19:09:10;436619.00;1.46;752.77;0.00;0.00;0.62;;;;;12.60;1.00;;;;;;2272499;61;1446;-90
2022/02/23 19:11:41;582961.00;1.94;1004.81;43482.00;0.14;75.91;;;;;12.80;1.00;;;;;;2272351;61;1411;-90
2022/02/23 19:14:09;1089626.00;3.63;1891.88;30540.00;0.10;53.52;;;;;12.80;1.00;;;;;;2272426;61;1738;-90
2022/02/23 19:16:36;1360792.00;4.54;2383.80;111263.00;0.37;193.01;;;;;12.90;1.00;;;;;;2272249;61;2009;-90
2022/02/23 19:19:07;1721473.00;5.74;3067.22;127028.00;0.42;220.20;;;;;12.90;1.00;;;;;;2272350;61;966;-89
2022/02/23 19:21:37;1778161.00;5.93;3178.32;205502.00;0.69;355.39;;;;;12.90;1.00;;;;;;2272456;61;1262;-91
2022/02/23 19:24:20;1137213.00;3.79;1977.10;62595.00;0.21;108.96;;;;;12.60;1.00;;;;;;2272414;61;1015;-88
2022/02/23 19:27:13;1122063.00;3.74;1949.93;80307.00;0.27;139.57;;;;;12.40;1.00;;;;;;2272145;61;1532;-89
2022/02/23 19:32:53;1197446.00;3.99;2085.60;185210.00;0.62;320.46;;;;;12.70;1.00;;;;;;2270835;61;1470;-91
2022/02/23 19:38:50;1683717.00;5.61;2993.83;48216.00;0.16;84.10;;;;;12.70;1.00;;;;;;2260372;61;1444;-89
2022/02/23 19:41:34;984687.00;3.28;1705.37;105211.00;0.35;182.57;;;;;12.70;1.00;;;;;;2272119;61;1623;-90
2022/02/23 19:44:14;848373.00;2.83;1465.62;59780.00;0.20;104.10;;;;;12.80;1.00;;;;;;2272314;61;1147;-88
2022/02/23 19:49:59;461293.00;1.54;795.21;0.00;0.00;0.62;;;;;12.90;1.00;;;;;;2271369;61;1110;-88
2022/02/23 19:52:44;560374.00;1.87;965.85;0.00;0.00;0.62;;;;;12.80;1.00;;;;;;2270920;61;1844;-89
2022/02/23 19:55:17;335368.00;1.12;578.71;0.00;0.00;0.62;;;;;13.00;1.00;;;;;;2272264;61;2014;-88
2022/02/23 19:57:57;572553.00;1.91;986.85;0.00;0.00;0.62;;;;;12.90;1.00;;;;;;2272115;61;1445;-89
2022/02/23 20:00:44;325445.00;1.08;561.66;0.00;0.00;0.62;;;;;12.60;1.00;;;;;;2272223;61;1637;-89
2022/02/23 20:03:34;931691.00;3.11;1611.85;5426.00;0.02;10.02;;;;;12.80;1.00;;;;;;2264058;61;1642;-89
2022/02/23 20:06:10;545596.00;1.82;940.37;0.00;0.00;0.62;;;;;12.90;1.00;;;;;;2271988;61;1380;-89
2022/02/23 20:08:48;599593.00;2.00;1033.52;0.00;0.00;0.62;;;;;13.10;1.00;;;;;;2272145;61;1728;-90
2022/02/23 20:11:22;2136622.00;7.12;3908.73;208877.00;0.70;361.20;;;;;13.30;1.00;;;;;;2272355;61;1520;-88
2022/02/23 20:19:44;530446.00;1.77;914.26;0.00;0.00;0.62;;;;;13.10;1.00;;;;;;2272178;61;1250;-89
2022/02/23 20:22:17;793894.00;2.65;1370.48;5432.00;0.02;10.03;;;;;13.40;1.00;;;;;;2272175;61;1586;-89
2022/02/23 20:24:53;2400269.00;8.00;4481.22;259071.00;0.86;447.55;;;;;13.70;1.00;;;;;;2272115;61;1623;-90
2022/02/23 20:27:28;1640750.00;5.47;2910.87;161568.00;0.54;279.74;;;;;13.90;1.00;;;;;;2272264;61;1589;-89
2022/02/23 20:30:18;791359.00;2.64;1366.06;127188.00;0.42;220.48;;;;;14.10;1.00;;;;;;2272246;61;1494;-90
2022/02/23 20:32:58;1015609.00;3.39;1760.14;112024.00;0.37;194.32;;;;;14.10;1.00;;;;;;2271808;61;1392;-90
2022/02/23 20:35:28;664936.00;2.22;1146.49;65760.00;0.22;114.43;;;;;14.30;1.00;;;;;;2270976;61;1915;-88
2022/02/23 20:37:57;428927.00;1.43;739.54;90730.00;0.30;157.57;;;;;14.40;1.00;;;;;;2272272;61;1421;-88
2022/02/23 20:40:25;373620.00;1.25;644.46;99418.00;0.33;172.57;;;;;14.30;1.00;;;;;;2272282;61;1451;-88
2022/02/23 20:43:02;600584.00;2.00;1035.23;81125.00;0.27;140.98;;;;;14.20;1.00;;;;;;2272203;61;1472;-89
2022/02/23 20:45:29;654716.00;2.18;1128.80;81126.00;0.27;140.98;;;;;14.10;1.00;;;;;;2272145;61;1501;-89
2022/02/23 20:47:58;397850.00;1.33;686.11;0.00;0.00;0.62;;;;;13.90;1.00;;;;;;2272087;61;1543;-89
2022/02/23 20:50:34;455054.00;1.52;784.48;0.00;0.00;0.62;;;;;13.30;1.00;;;;;;2272172;61;1016;-90
2022/02/23 20:53:03;533629.00;1.78;919.74;42857.00;0.14;74.83;;;;;13.30;1.00;;;;;;2272081;61;1577;-89
2022/02/23 20:55:36;614092.00;2.05;1058.56;0.00;0.00;0.62;;;;;13.50;1.00;;;;;;2271979;61;2002;-90
2022/02/23 20:58:04;328398.00;1.09;566.73;0.00;0.00;0.62;;;;;13.60;1.00;;;;;;2272180;61;1429;-89
2022/02/23 21:00:32;477594.00;1.59;823.26;0.00;0.00;0.62;;;;;13.50;1.00;;;;;;2272075;61;1398;-90
2022/02/23 21:03:04;502615.00;1.68;866.33;0.00;0.00;0.62;;;;;13.70;1.00;;;;;;2272072;61;1623;-90
2022/02/23 21:05:35;646855.00;2.16;1115.20;0.00;0.00;0.62;;;;;13.80;1.00;;;;;;2272147;61;1588;-89
2022/02/23 21:08:03;462271.00;1.54;796.89;0.00;0.00;0.62;;;;;13.80;1.00;;;;;;2272126;61;1573;-89
2022/02/23 21:10:38;414408.00;1.38;714.58;0.00;0.00;0.62;;;;;13.80;1.00;;;;;;2272077;61;1604;-89
2022/02/23 21:13:20;525508.00;1.75;905.75;0.00;0.00;0.62;;;;;13.30;1.00;;;;;;2272007;61;1564;-89
2022/02/23 21:15:53;594093.00;1.98;1024.02;0.00;0.00;0.62;;;;;13.10;1.00;;;;;;2272053;61;1931;-89
2022/02/23 21:18:29;538051.00;1.79;927.36;0.00;0.00;0.62;;;;;13.00;1.00;;;;;;2271983;61;1477;-89
2022/02/23 21:20:58;492095.00;1.64;848.22;0.00;0.00;0.62;;;;;13.30;1.00;;;;;;2271808;61;1398;-89
2022/02/23 21:23:32;515945.00;1.72;889.28;0.00;0.00;0.62;;;;;13.60;1.00;;;;;;2271870;61;1597;-90
2022/02/23 21:26:16;606403.00;2.02;1045.28;0.00;0.00;0.62;;;;;13.60;1.00;;;;;;2272057;61;1576;-89
2022/02/23 21:29:08;478600.00;1.60;824.99;0.00;0.00;0.62;;;;;13.90;1.00;;;;;;2272111;61;1381;-91
2022/02/23 21:31:49;449039.00;1.50;774.13;0.00;0.00;0.62;;;;;13.90;1.00;;;;;;2255324;61;1433;-88
2022/02/23 21:34:36;776075.00;2.59;1339.43;55409.00;0.18;96.54;;;;;13.70;1.00;;;;;;2251265;61;1090;-89
2022/02/23 21:37:23;1190275.00;3.97;2072.65;100971.00;0.34;175.25;;;;;13.40;1.00;;;;;;2251437;61;1932;-89
2022/02/23 21:43:23;502336.00;1.67;865.85;0.00;0.00;0.62;;;;;13.10;1.00;;;;;;2251278;61;1318;-88
2022/02/23 21:46:18;611428.00;2.04;1053.96;0.00;0.00;0.62;;;;;13.40;1.00;;;;;;2251520;61;1529;-88
2022/02/23 21:49:02;654377.00;2.18;1128.21;19503.00;0.07;34.41;;;;;13.60;1.00;;;;;;2251356;61;1458;-89
2022/02/23 21:54:51;540705.00;1.80;931.94;0.00;0.00;0.62;;;;;13.40;1.00;;;;;;2251948;61;1637;-89
2022/02/23 21:57:49;;;;;;;;;;;;;;;;;;;;;
2022/02/23 22:00:29;625990.00;2.09;1079.12;0.00;0.00;0.62;;;;;13.00;1.00;;;;;;2235435;62;1457;-89
2022/02/23 22:03:50;576611.00;1.92;993.85;0.00;0.00;0.62;;;;;13.00;1.00;;;;;;2235478;62;2232;-89
2022/02/23 22:06:32;446681.00;1.49;770.07;0.00;0.00;0.62;;;;;13.50;1.00;;;;;;2223993;62;1446;-89
2022/02/23 22:11:59;353771.00;1.18;610.34;0.00;0.00;0.62;;;;;13.70;1.00;;;;;;2239397;62;1382;-90
2022/02/23 22:14:41;529857.00;1.77;913.25;0.00;0.00;0.62;;;;;13.70;1.00;;;;;;2239468;62;1146;-89
2022/02/23 22:17:12;522302.00;1.74;900.23;54993.00;0.18;95.82;;;;;13.70;1.00;;;;;;2240251;61;2011;-89
2022/02/23 22:19:48;452010.00;1.51;779.24;0.00;0.00;0.62;;;;;13.90;1.00;;;;;;2255391;61;1417;-89
2022/02/23 22:22:26;635439.00;2.12;1095.45;77691.00;0.26;135.05;;;;;14.00;1.00;;;;;;2255182;61;1458;-89
2022/02/23 22:25:00;915004.00;3.05;1582.49;29744.00;0.10;52.14;;;;;13.90;1.00;;;;;;2262485;61;1834;-88
2022/02/23 22:27:29;687507.00;2.29;1185.58;0.00;0.00;0.62;;;;;13.40;1.00;;;;;;2262623;61;1441;-88
2022/02/23 22:33:22;493062.00;1.64;849.88;23907.00;0.08;42.04;;;;;12.80;1.00;;;;;;2259312;61;1411;-88
2022/02/23 22:36:00;1130144.00;3.77;1964.42;50556.00;0.17;88.15;;;;;12.50;1.00;;;;;;2259808;61;2003;-87
2022/02/23 22:38:36;1926909.00;6.42;3475.31;186310.00;0.62;322.36;;;;;12.60;1.00;;;;;;2259911;61;1507;-88
2022/02/23 22:41:08;2027307.00;6.76;3680.55;76845.00;0.26;133.59;;;;;12.50;1.00;;;;;;2260068;61;1461;-89
2022/02/23 22:43:59;960336.00;3.20;1662.35;129127.00;0.43;223.82;;;;;12.50;1.00;;;;;;2270359;61;1405;-88
2022/02/23 22:46:32;1179126.00;3.93;2052.52;66691.00;0.22;116.04;;;;;12.60;1.00;;;;;;2271564;61;1616;-88
2022/02/23 22:49:26;644055.00;2.15;1110.35;77459.00;0.26;134.65;;;;;12.80;1.00;;;;;;2272472;61;1459;-88
2022/02/23 22:52:19;1149974.00;3.83;2000.03;36328.00;0.12;63.53;;;;;12.90;1.00;;;;;;2272438;61;1498;-88
2022/02/23 22:54:57;519749.00;1.73;895.83;0.00;0.00;0.62;;;;;13.20;1.00;;;;;;2272456;61;1588;-89
2022/02/23 22:57:41;590194.00;1.97;1017.29;0.00;0.00;0.62;;;;;13.20;1.00;;;;;;2272446;61;1919;-88
2022/02/23 23:00:50;479346.00;1.60;826.27;0.00;0.00;0.62;;;;;13.50;1.00;;;;;;2272390;61;1574;-87
2022/02/23 23:03:32;736123.00;2.45;1269.94;131662.00;0.44;228.20;;;;;12.70;1.00;;;;;;2272572;61;1389;-88
2022/02/23 23:09:25;621553.00;2.07;1071.45;0.00;0.00;0.62;;;;;12.20;1.00;;;;;;2272359;61;1237;-88
2022/02/23 23:12:07;495792.00;1.65;854.58;0.00;0.00;0.62;;;;;12.40;1.00;;;;;;2272403;61;1518;-88
2022/02/23 23:17:29;597328.00;1.99;1029.61;9576.00;0.03;17.21;;;;;12.40;1.00;;;;;;2272075;61;1914;-88
2022/02/23 23:23:01;294085.00;0.98;507.75;0.00;0.00;0.62;;;;;12.90;1.00;;;;;;2272259;61;1383;-88
2022/02/23 23:28:31;363339.00;1.21;626.79;0.00;0.00;0.62;;;;;12.20;1.00;;;;;;2271882;61;1074;-87
2022/02/23 23:36:52;400021.00;1.33;689.84;0.00;0.00;0.62;;;;;13.00;1.00;;;;;;2271954;61;1907;-88
2022/02/23 23:39:41;1614994.00;5.38;2861.43;86469.00;0.29;150.21;;;;;13.20;1.00;;;;;;2272419;61;1506;-88
2022/02/23 23:42:39;2257922.00;7.53;4168.08;328932.00;1.10;567.65;;;;;13.50;1.00;;;;;;2272309;61;1619;-89
2022/02/23 23:45:32;2069926.00;6.90;3768.91;206840.00;0.69;357.70;;;;;13.50;1.00;;;;;;2271101;61;1613;-88
2022/02/23 23:48:14;710578.00;2.37;1225.59;92132.00;0.31;159.99;;;;;13.40;1.00;;;;;;2272263;61;1157;-89
2022/02/23 23:53:39;;;;;;;;;;;;;;;;;;;;;
2022/02/23 23:56:16;551279.00;1.84;950.16;0.00;0.00;0.62;;;;;11.30;1.00;;;;;;2272100;61;1919;-88
2022/02/23 23:59:08;748585.00;2.50;1291.60;0.00;0.00;0.62;;;;;10.70;1.00;;;;;;2272311;61;1900;-88
